createdAt,value
2019-02-21T00:02:42.335Z,25.50
2019-02-21T00:05:37.953Z,25.50
2019-02-21T00:08:29.875Z,25.50
2019-02-21T00:11:22.335Z,25.50
2019-02-21T00:14:14.665Z,25.50
2019-02-21T00:17:07.097Z,25.50
2019-02-21T00:19:59.522Z,25.50
2019-02-21T00:22:51.817Z,25.40
2019-02-21T00:25:44.588Z,25.50
2019-02-21T00:28:37.175Z,25.40
2019-02-21T00:31:29.338Z,25.40
2019-02-21T00:34:21.478Z,25.40
2019-02-21T00:37:13.478Z,25.50
2019-02-21T00:40:05.717Z,25.50
2019-02-21T00:42:57.844Z,25.40
2019-02-21T00:45:50.083Z,25.40
2019-02-21T00:48:42.012Z,25.40
2019-02-21T00:51:34.232Z,25.40
2019-02-21T00:54:26.395Z,25.40
2019-02-21T00:57:18.648Z,25.50
2019-02-21T01:00:13.690Z,25.40
2019-02-21T01:03:05.608Z,25.40
2019-02-21T01:05:57.828Z,25.50
2019-02-21T01:08:50.578Z,25.40
2019-02-21T01:11:42.764Z,25.40
2019-02-21T01:14:34.857Z,25.40
2019-02-21T01:17:26.970Z,25.40
2019-02-21T01:20:19.135Z,25.40
2019-02-21T01:23:11.617Z,25.30
2019-02-21T01:26:03.789Z,25.30
2019-02-21T01:28:56.317Z,25.30
2019-02-21T01:31:48.658Z,25.20
2019-02-21T01:34:41.419Z,25.20
2019-02-21T01:37:33.885Z,25.20
2019-02-21T01:40:26.289Z,25.20
2019-02-21T01:43:18.707Z,25.20
2019-02-21T01:46:11.093Z,25.20
2019-02-21T01:49:03.556Z,25.20
2019-02-21T01:51:55.908Z,25.20
2019-02-21T01:54:48.355Z,25.10
2019-02-21T01:57:40.866Z,25.10
2019-02-21T02:00:33.495Z,25.20
2019-02-21T02:03:25.840Z,25.10
2019-02-21T02:06:18.580Z,25.10
2019-02-21T02:09:14.350Z,25.10
2019-02-21T02:12:06.550Z,25.10
2019-02-21T02:15:00.314Z,25.10
2019-02-21T02:17:52.097Z,25.10
2019-02-21T02:20:44.566Z,25.10
2019-02-21T02:23:37.101Z,25.10
2019-02-21T02:26:29.775Z,25.20
2019-02-21T02:29:21.949Z,25.20
2019-02-21T02:32:14.421Z,25.20
2019-02-21T02:35:09.292Z,25.20
2019-02-21T02:38:02.089Z,25.20
2019-02-21T02:40:54.254Z,25.30
2019-02-21T02:43:49.602Z,25.20
2019-02-21T02:46:40.462Z,25.20
2019-02-21T02:49:35.106Z,25.20
2019-02-21T02:52:27.186Z,25.20
2019-02-21T02:55:20.748Z,25.30
2019-02-21T02:58:12.948Z,25.20
2019-02-21T03:01:09.241Z,25.20
2019-02-21T03:04:04.846Z,25.30
2019-02-21T03:07:02.478Z,25.30
2019-02-21T03:10:16.020Z,25.30
2019-02-21T03:13:08.597Z,25.30
2019-02-21T03:16:00.260Z,25.30
2019-02-21T03:18:56.984Z,25.30
2019-02-21T03:21:53.222Z,25.30
2019-02-21T03:24:51.066Z,25.30
2019-02-21T03:27:47.137Z,25.40
2019-02-21T03:30:52.043Z,25.40
2019-02-21T03:34:09.317Z,25.50
2019-02-21T03:36:50.358Z,25.50
2019-02-21T03:39:48.980Z,25.50
2019-02-21T03:42:45.601Z,25.50
2019-02-21T03:45:39.163Z,25.50
2019-02-21T03:48:31.997Z,25.50
2019-02-21T03:51:28.700Z,25.50
2019-02-21T03:54:21.129Z,25.50
2019-02-21T04:00:54.606Z,25.50
2019-02-21T04:03:55.263Z,25.60
2019-02-21T04:06:57.317Z,25.60
2019-02-21T04:09:42.535Z,25.50
2019-02-21T04:12:38.946Z,25.60
2019-02-21T04:15:34.555Z,25.60
2019-02-21T04:18:29.678Z,25.60
2019-02-21T04:21:29.753Z,25.60
2019-02-21T04:24:34.194Z,25.60
2019-02-21T04:27:26.720Z,25.60
2019-02-21T04:30:26.464Z,25.60
2019-02-21T04:33:39.623Z,25.70
2019-02-21T04:36:43.072Z,25.70
2019-02-21T04:39:59.481Z,25.70
2019-02-21T04:42:52.803Z,25.70
2019-02-21T04:45:55.191Z,25.60
2019-02-21T04:48:52.052Z,25.60
2019-02-21T04:55:16.085Z,25.50
2019-02-21T04:58:20.638Z,25.50
2019-02-21T05:03:01.526Z,25.50
2019-02-21T05:04:14.788Z,25.60
2019-02-21T05:07:40.662Z,25.60
2019-02-21T05:10:21.563Z,25.50
2019-02-21T05:13:42.838Z,25.60
2019-02-21T05:16:49.449Z,25.60
2019-02-21T05:20:56.012Z,25.60
2019-02-21T05:23:32.476Z,25.60
2019-02-21T05:26:43.070Z,25.70
2019-02-21T05:33:58.646Z,25.80
2019-02-21T05:37:19.802Z,25.80
2019-02-21T05:40:31.501Z,25.90
2019-02-21T05:46:15.790Z,26.10
2019-02-21T05:49:41.705Z,26.10
2019-02-21T05:52:52.102Z,26.10
2019-02-21T05:56:07.142Z,26.10
2019-02-21T05:59:11.540Z,26.20
2019-02-21T06:02:29.997Z,26.20
2019-02-21T06:09:06.987Z,26.20
2019-02-21T06:12:16.263Z,26.20
2019-02-21T06:15:29.731Z,26.30
2019-02-21T06:18:38.963Z,26.40
2019-02-21T06:21:45.851Z,26.40
2019-02-21T06:25:20.919Z,26.50
2019-02-21T06:28:39.853Z,26.50
2019-02-21T06:31:35.541Z,26.40
2019-02-21T06:34:31.747Z,26.50
2019-02-21T06:37:28.167Z,26.50
2019-02-21T06:40:23.750Z,26.50
2019-02-21T06:43:18.291Z,26.50
2019-02-21T06:46:14.846Z,26.50
2019-02-21T06:49:20.267Z,26.50
2019-02-21T06:52:50.100Z,26.50
2019-02-21T06:55:41.514Z,26.60
2019-02-21T06:59:06.770Z,26.60
2019-02-21T07:02:35.159Z,26.60
2019-02-21T07:08:56.752Z,26.70
2019-02-21T07:12:06.430Z,26.70
2019-02-21T07:15:48.054Z,26.70
2019-02-21T07:18:30.475Z,26.70
2019-02-21T07:21:36.434Z,26.70
2019-02-21T07:24:43.613Z,26.80
2019-02-21T07:27:31.219Z,26.70
2019-02-21T07:30:27.831Z,26.70
2019-02-21T07:36:36.288Z,26.80
2019-02-21T07:39:36.105Z,26.80
2019-02-21T07:45:47.983Z,26.80
2019-02-21T07:48:54.560Z,26.80
2019-02-21T07:52:13.049Z,26.80
2019-02-21T07:55:46.024Z,26.80
2019-02-21T07:58:52.135Z,26.90
2019-02-21T08:01:49.896Z,26.90
2019-02-21T08:04:52.275Z,26.90
2019-02-21T08:07:54.898Z,26.90
2019-02-21T08:10:50.368Z,26.90
2019-02-21T08:13:49.064Z,26.80
2019-02-21T08:16:46.439Z,26.90
2019-02-21T08:19:41.747Z,26.90
2019-02-21T08:22:43.887Z,26.90
2019-02-21T08:28:55.888Z,26.90
2019-02-21T08:31:49.870Z,26.90
2019-02-21T08:34:48.252Z,26.90
2019-02-21T08:37:44.060Z,26.90
2019-02-21T08:40:38.526Z,26.90
2019-02-21T08:43:38.895Z,26.90
2019-02-21T08:46:37.504Z,26.90
2019-02-21T08:49:30.660Z,26.90
2019-02-21T08:52:29.992Z,26.90
2019-02-21T08:55:30.653Z,26.90
2019-02-21T08:58:36.148Z,26.90
2019-02-21T09:01:29.303Z,26.90
2019-02-21T09:04:29.882Z,27.00
2019-02-21T09:07:26.226Z,27.00
2019-02-21T09:10:22.009Z,27.00
2019-02-21T09:13:19.730Z,27.00
2019-02-21T09:16:28.489Z,27.00
2019-02-21T09:19:23.448Z,27.00
2019-02-21T09:22:23.563Z,27.00
2019-02-21T09:25:25.523Z,27.00
2019-02-21T09:28:23.151Z,27.00
2019-02-21T09:31:21.189Z,27.00
2019-02-21T09:34:21.235Z,26.90
2019-02-21T09:40:28.471Z,26.90
2019-02-21T09:43:22.661Z,26.90
2019-02-21T09:46:15.537Z,27.00
2019-02-21T09:49:07.964Z,27.00
2019-02-21T09:52:53.330Z,27.00
2019-02-21T09:55:18.694Z,27.00
2019-02-21T09:58:11.440Z,27.00
2019-02-21T10:25:15.970Z,27.00
2019-02-21T10:28:17.386Z,26.90
2019-02-21T10:34:43.012Z,26.90
2019-02-21T10:37:34.505Z,26.80
2019-02-21T10:40:59.365Z,26.80
2019-02-21T10:43:59.916Z,26.90
2019-02-21T10:46:54.924Z,26.80
2019-02-21T10:49:54.311Z,26.80
2019-02-21T10:53:14.781Z,26.80
2019-02-21T10:56:11.124Z,26.80
2019-02-21T10:59:13.749Z,26.90
2019-02-21T11:02:16.934Z,26.80
2019-02-21T11:05:24.383Z,26.80
2019-02-21T11:08:25.093Z,26.90
2019-02-21T11:11:28.351Z,26.90
2019-02-21T11:17:58.121Z,27.00
2019-02-21T11:20:54.597Z,27.00
2019-02-21T11:23:52.278Z,27.00
2019-02-21T11:26:47.304Z,27.00
2019-02-21T11:29:46.938Z,27.00
2019-02-21T11:32:41.279Z,27.00
2019-02-21T11:35:38.588Z,27.00
2019-02-21T11:38:35.005Z,27.00
2019-02-21T11:41:29.351Z,27.10
2019-02-21T11:44:24.081Z,27.10
2019-02-21T11:47:19.954Z,27.10
2019-02-21T11:50:13.969Z,27.10
2019-02-21T11:53:09.331Z,27.10
2019-02-21T11:56:02.878Z,27.10
2019-02-21T11:58:56.737Z,27.10
2019-02-21T12:01:54.650Z,27.10
2019-02-21T12:04:53.293Z,27.10
2019-02-21T12:07:48.395Z,27.10
2019-02-21T12:10:50.147Z,27.10
2019-02-21T12:13:48.862Z,27.10
2019-02-21T12:16:43.241Z,27.10
2019-02-21T12:19:51.485Z,27.10
2019-02-21T12:33:54.284Z,27.10
2019-02-21T12:37:52.373Z,27.10
2019-02-21T12:47:55.568Z,27.20
2019-02-21T12:50:49.178Z,27.20
2019-02-21T12:53:44.063Z,27.10
2019-02-21T12:56:36.360Z,27.10
2019-02-21T12:59:29.034Z,27.20
2019-02-21T13:02:21.469Z,27.20
2019-02-21T13:05:13.895Z,27.20
2019-02-21T13:08:08.895Z,27.20
2019-02-21T13:11:01.157Z,27.10
2019-02-21T13:13:53.580Z,27.10
2019-02-21T13:16:46.274Z,27.20
2019-02-21T13:19:39.127Z,27.20
2019-02-21T13:22:32.047Z,27.20
2019-02-21T13:25:24.960Z,27.20
2019-02-21T13:28:18.244Z,27.20
2019-02-21T13:31:13.678Z,27.10
2019-02-21T13:34:07.926Z,27.10
2019-02-21T13:37:00.371Z,27.20
2019-02-21T13:39:53.389Z,27.20
2019-02-21T13:42:46.376Z,27.20
2019-02-21T13:45:41.904Z,27.10
2019-02-21T13:48:36.672Z,27.10
2019-02-21T13:51:29.302Z,27.10
2019-02-21T13:54:22.257Z,27.10
2019-02-21T13:57:15.036Z,27.20
2019-02-21T14:00:08.452Z,27.10
2019-02-21T14:03:01.386Z,27.10
2019-02-21T14:06:03.292Z,27.10
2019-02-21T14:08:47.530Z,27.20
2019-02-21T14:11:40.035Z,27.10
2019-02-21T14:14:47.021Z,27.10
2019-02-21T14:17:46.515Z,27.10
2019-02-21T14:20:49.767Z,27.20
2019-02-21T14:23:44.532Z,27.10
2019-02-21T14:26:37.771Z,27.10
2019-02-21T14:29:38.794Z,27.10
2019-02-21T14:32:24.098Z,27.10
2019-02-21T14:35:16.433Z,27.10
2019-02-21T14:38:08.975Z,27.10
2019-02-21T14:41:01.340Z,27.10
2019-02-21T14:43:54.730Z,27.00
2019-02-21T14:46:50.182Z,27.00
2019-02-21T14:49:41.578Z,27.00
2019-02-21T14:52:35.077Z,27.00
2019-02-21T14:55:30.117Z,26.90
2019-02-21T14:58:22.084Z,26.90
2019-02-21T15:01:15.409Z,26.90
2019-02-21T15:04:07.971Z,26.80
2019-02-21T15:07:02.395Z,26.90
2019-02-21T15:09:54.979Z,26.90
2019-02-21T15:12:47.305Z,26.90
2019-02-21T15:15:39.746Z,26.80
2019-02-21T15:18:32.684Z,26.80
2019-02-21T15:21:24.884Z,26.80
2019-02-21T15:24:17.374Z,26.80
2019-02-21T15:27:11.123Z,26.80
2019-02-21T15:30:05.029Z,26.80
2019-02-21T15:32:57.958Z,26.80
2019-02-21T15:35:50.315Z,26.80
2019-02-21T15:38:43.131Z,26.80
2019-02-21T15:41:36.246Z,26.70
2019-02-21T15:44:28.859Z,26.70
2019-02-21T15:47:21.194Z,26.70
2019-02-21T15:50:15.441Z,26.70
2019-02-21T15:53:07.592Z,26.70
2019-02-21T15:55:59.924Z,26.70
2019-02-21T15:58:51.820Z,26.70
2019-02-21T16:01:47.546Z,26.70
2019-02-21T16:04:38.241Z,26.70
2019-02-21T16:07:30.199Z,26.60
2019-02-21T16:10:23.153Z,26.70
2019-02-21T16:13:15.324Z,26.60
2019-02-21T16:16:08.303Z,26.60
2019-02-21T16:19:01.230Z,26.60
2019-02-21T16:21:53.965Z,26.60
2019-02-21T16:24:48.013Z,26.60
2019-02-21T16:27:39.901Z,26.60
2019-02-21T16:30:32.423Z,26.60
2019-02-21T16:33:26.442Z,26.60
2019-02-21T16:36:19.628Z,26.60
2019-02-21T16:39:12.970Z,26.60
2019-02-21T16:42:07.265Z,26.60
2019-02-21T16:44:59.783Z,26.60
2019-02-21T16:47:52.512Z,26.60
2019-02-21T16:50:44.880Z,26.60
2019-02-21T16:53:38.113Z,26.60
2019-02-21T16:56:30.335Z,26.60
2019-02-21T16:59:23.005Z,26.60
2019-02-21T17:02:15.221Z,26.50
2019-02-21T17:05:07.847Z,26.50
2019-02-21T17:08:00.002Z,26.50
2019-02-21T17:10:52.710Z,26.50
2019-02-21T17:13:45.792Z,26.50
2019-02-21T17:16:38.504Z,26.50
2019-02-21T17:19:32.077Z,26.50
2019-02-21T17:22:26.074Z,26.50
2019-02-21T17:25:18.504Z,26.50
2019-02-21T17:28:11.242Z,26.50
2019-02-21T17:31:03.277Z,26.50
2019-02-21T17:33:55.648Z,26.50
2019-02-21T17:36:48.073Z,26.50
2019-02-21T17:39:39.983Z,26.40
2019-02-21T17:42:32.724Z,26.30
2019-02-21T17:45:25.214Z,26.30
2019-02-21T17:48:17.579Z,26.30
2019-02-21T17:51:09.457Z,26.30
2019-02-21T17:54:02.830Z,26.20
2019-02-21T17:56:55.160Z,26.20
2019-02-21T17:59:47.345Z,26.20
2019-02-21T18:02:39.718Z,26.20
2019-02-21T18:05:32.100Z,26.20
2019-02-21T18:08:24.410Z,26.20
2019-02-21T18:11:16.713Z,26.20
2019-02-21T18:14:09.236Z,26.20
2019-02-21T18:17:01.232Z,26.20
2019-02-21T18:19:53.496Z,26.20
2019-02-21T18:22:46.313Z,26.20
2019-02-21T18:25:40.994Z,26.30
2019-02-21T18:28:33.206Z,26.20
2019-02-21T18:31:45.435Z,26.20
2019-02-21T18:34:38.166Z,26.20
2019-02-21T18:37:30.552Z,26.20
2019-02-21T18:40:22.467Z,26.20
2019-02-21T18:43:14.692Z,26.20
2019-02-21T18:46:07.540Z,26.20
2019-02-21T18:48:59.480Z,26.20
2019-02-21T18:51:51.941Z,26.20
2019-02-21T18:54:44.114Z,26.20
2019-02-21T18:57:36.180Z,26.30
2019-02-21T19:00:28.402Z,26.30
2019-02-21T19:03:20.792Z,26.20
2019-02-21T19:06:12.934Z,26.20
2019-02-21T19:09:05.275Z,26.30
2019-02-21T19:11:58.267Z,26.20
2019-02-21T19:14:50.653Z,26.20
2019-02-21T19:17:42.769Z,26.30
2019-02-21T19:20:35.643Z,26.30
2019-02-21T19:23:28.258Z,26.20
2019-02-21T19:26:20.898Z,26.20
2019-02-21T19:29:13.203Z,26.30
2019-02-21T19:32:06.293Z,26.30
2019-02-21T19:34:58.787Z,26.20
2019-02-21T19:37:50.985Z,26.30
2019-02-21T19:40:43.124Z,26.20
2019-02-21T19:43:35.348Z,26.30
2019-02-21T19:46:27.507Z,26.20
2019-02-21T19:49:20.026Z,26.20
2019-02-21T19:52:12.040Z,26.20
2019-02-21T19:55:04.282Z,26.30
2019-02-21T19:57:56.462Z,26.30
2019-02-21T20:00:49.288Z,26.30
2019-02-21T20:03:41.583Z,26.30
2019-02-21T20:06:33.685Z,26.30
2019-02-21T20:09:26.043Z,26.20
2019-02-21T20:12:18.359Z,26.20
2019-02-21T20:15:10.710Z,26.20
2019-02-21T20:18:03.008Z,26.30
2019-02-21T20:20:55.349Z,26.20
2019-02-21T20:23:48.778Z,26.20
2019-02-21T20:26:41.844Z,26.20
2019-02-21T20:29:34.255Z,26.20
2019-02-21T20:32:26.525Z,26.20
2019-02-21T20:35:18.886Z,26.30
2019-02-21T20:38:11.350Z,26.30
2019-02-21T20:41:03.686Z,26.20
2019-02-21T20:43:55.923Z,26.30
2019-02-21T20:46:48.249Z,26.30
2019-02-21T20:49:40.639Z,26.20
2019-02-21T20:52:33.546Z,26.20
2019-02-21T20:55:25.667Z,26.20
2019-02-21T20:58:17.732Z,26.20
2019-02-21T21:01:12.558Z,26.20
2019-02-21T21:04:04.215Z,26.20
2019-02-21T21:06:56.423Z,26.20
2019-02-21T21:09:48.695Z,26.20
2019-02-21T21:12:40.928Z,26.20
2019-02-21T21:15:32.836Z,26.20
2019-02-21T21:18:25.078Z,26.30
2019-02-21T21:21:17.538Z,26.20
2019-02-21T21:24:09.468Z,26.20
2019-02-21T21:27:01.803Z,26.20
2019-02-21T21:29:53.985Z,26.20
2019-02-21T21:32:45.880Z,26.20
2019-02-21T21:35:38.357Z,26.20
2019-02-21T21:38:30.590Z,26.20
2019-02-21T21:41:23.022Z,26.20
2019-02-21T21:44:15.138Z,26.20
2019-02-21T21:47:07.307Z,26.20
2019-02-21T21:49:59.507Z,26.20
2019-02-21T21:52:51.887Z,26.20
2019-02-21T21:55:43.801Z,26.20
2019-02-21T21:58:35.580Z,26.20
2019-02-21T22:01:28.108Z,26.20
2019-02-21T22:04:21.150Z,26.20
2019-02-21T22:07:13.573Z,26.20
2019-02-21T22:10:05.995Z,26.20
2019-02-21T22:12:58.172Z,26.20
2019-02-21T22:15:50.495Z,26.20
2019-02-21T22:18:42.948Z,26.20
2019-02-21T22:21:35.668Z,26.20
2019-02-21T22:24:27.811Z,26.20
2019-02-21T22:27:19.832Z,26.20
2019-02-21T22:30:13.125Z,26.20
2019-02-21T22:33:05.323Z,26.20
2019-02-21T22:35:57.611Z,26.20
2019-02-21T22:38:49.761Z,26.20
2019-02-21T22:41:41.865Z,26.20
2019-02-21T22:44:34.003Z,26.20
2019-02-21T22:47:26.238Z,26.20
2019-02-21T22:50:18.845Z,26.20
2019-02-21T22:53:11.471Z,26.20
2019-02-21T22:56:03.430Z,26.20
2019-02-21T22:58:55.674Z,26.20
2019-02-21T23:01:48.659Z,26.20
2019-02-21T23:04:43.247Z,26.20
2019-02-21T23:07:53.882Z,26.20
2019-02-21T23:10:46.242Z,26.20
2019-02-21T23:13:38.545Z,26.20
2019-02-21T23:16:30.538Z,26.20
2019-02-21T23:19:24.152Z,26.20
2019-02-21T23:22:15.887Z,26.20
2019-02-21T23:25:08.840Z,26.20
2019-02-21T23:27:46.743Z,26.20
2019-02-21T23:30:38.761Z,26.20
2019-02-21T23:33:32.447Z,26.20
2019-02-21T23:36:24.688Z,26.20
2019-02-21T23:39:16.828Z,26.20
2019-02-21T23:42:09.091Z,26.10
2019-02-21T23:45:01.195Z,26.10
2019-02-21T23:47:55.823Z,26.20
2019-02-21T23:50:47.975Z,26.20
2019-02-21T23:53:40.109Z,26.20
2019-02-21T23:56:32.381Z,26.20
2019-02-21T23:59:24.485Z,26.20
